createdAt,value
2018-12-24T00:02:00.439Z,94.42
2018-12-24T00:09:42.212Z,93.71
2018-12-24T00:12:11.267Z,94.29
2018-12-24T00:14:40.316Z,93.05
2018-12-24T00:17:09.383Z,92.76
2018-12-24T00:22:19.807Z,93.35
2018-12-24T00:24:48.835Z,93.52
2018-12-24T00:27:17.885Z,93.03
2018-12-24T00:29:46.986Z,93.17
2018-12-24T00:32:16.063Z,93.30
2018-12-24T00:34:46.241Z,93.79
2018-12-24T00:37:15.309Z,92.96
2018-12-24T00:39:44.360Z,93.16
2018-12-24T00:42:15.888Z,92.50
2018-12-24T00:44:42.550Z,92.75
2018-12-24T00:47:11.614Z,92.83
2018-12-24T00:49:40.669Z,92.71
2018-12-24T00:54:48.499Z,92.23
2018-12-24T00:57:17.549Z,91.38
2018-12-24T01:02:22.385Z,91.90
2018-12-24T01:04:51.438Z,91.73
2018-12-24T01:07:20.484Z,91.29
2018-12-24T01:09:49.530Z,91.17
2018-12-24T01:14:54.399Z,91.20
2018-12-24T01:17:23.446Z,91.21
2018-12-24T01:22:28.208Z,91.83
2018-12-24T01:24:57.271Z,91.71
2018-12-24T01:27:26.287Z,91.27
2018-12-24T01:32:34.052Z,91.34
2018-12-24T01:35:03.145Z,91.48
2018-12-24T01:37:32.198Z,91.15
2018-12-24T01:40:01.239Z,92.40
2018-12-24T01:45:06.069Z,94.27
2018-12-24T01:47:35.110Z,94.14
2018-12-24T01:50:04.170Z,93.88
2018-12-24T01:52:33.234Z,94.58
2018-12-24T01:55:02.280Z,94.82
2018-12-24T01:57:32.285Z,94.40
2018-12-24T02:00:01.341Z,95.81
2018-12-24T02:02:30.363Z,95.15
2018-12-24T02:05:00.385Z,94.82
2018-12-24T02:07:29.445Z,95.36
2018-12-24T02:09:58.494Z,95.59
2018-12-24T02:15:06.740Z,95.83
2018-12-24T02:17:35.799Z,95.21
2018-12-24T02:20:04.870Z,94.97
2018-12-24T02:22:33.922Z,93.64
2018-12-24T02:25:03.079Z,93.66
2018-12-24T02:30:07.885Z,92.89
2018-12-24T02:35:16.129Z,92.70
2018-12-24T02:40:20.966Z,94.58
2018-12-24T02:42:52.508Z,94.40
2018-12-24T02:45:19.133Z,95.20
2018-12-24T02:47:48.201Z,95.21
2018-12-24T02:50:17.260Z,95.02
2018-12-24T02:52:46.410Z,94.78
2018-12-24T02:55:15.461Z,95.95
2018-12-24T02:57:44.509Z,96.66
2018-12-24T03:00:13.580Z,97.87
2018-12-24T03:02:42.638Z,99.13
2018-12-24T03:05:11.689Z,100.00
2018-12-24T03:07:40.811Z,100.00
2018-12-24T03:14:09.918Z,100.00
2018-12-24T03:16:39.007Z,100.00
2018-12-24T03:19:08.039Z,100.00
2018-12-24T03:21:37.099Z,100.00
2018-12-24T03:24:06.156Z,100.00
2018-12-24T03:26:35.212Z,100.00
2018-12-24T03:29:04.277Z,100.00
2018-12-24T03:31:33.421Z,100.00
2018-12-24T03:34:02.481Z,100.00
2018-12-24T03:36:31.533Z,100.00
2018-12-24T03:39:00.583Z,100.00
2018-12-24T03:41:29.628Z,100.00
2018-12-24T03:43:58.670Z,100.00
2018-12-24T03:46:28.170Z,100.00
2018-12-24T03:49:01.717Z,100.00
2018-12-24T03:51:30.756Z,100.00
2018-12-24T03:53:59.838Z,100.00
2018-12-24T03:56:28.866Z,100.00
2018-12-24T03:58:57.948Z,100.00
2018-12-24T04:01:26.546Z,100.00
2018-12-24T04:03:55.066Z,100.00
2018-12-24T04:06:23.595Z,100.00
2018-12-24T04:08:52.110Z,100.00
2018-12-24T04:11:20.650Z,100.00
2018-12-24T04:13:49.193Z,100.00
2018-12-24T04:16:17.701Z,100.00
2018-12-24T04:18:46.233Z,100.00
2018-12-24T04:21:14.746Z,100.00
2018-12-24T04:23:43.269Z,100.00
2018-12-24T04:26:11.790Z,100.00
2018-12-24T04:28:40.315Z,100.00
2018-12-24T04:31:09.828Z,100.00
2018-12-24T04:33:38.351Z,100.00
2018-12-24T04:36:07.076Z,100.00
2018-12-24T04:38:35.591Z,100.00
2018-12-24T04:41:04.178Z,100.00
2018-12-24T04:43:32.767Z,100.00
2018-12-24T04:46:01.263Z,100.00
2018-12-24T04:48:29.804Z,100.00
2018-12-24T04:50:58.311Z,100.00
2018-12-24T04:53:26.855Z,100.00
2018-12-24T04:55:55.363Z,100.00
2018-12-24T04:58:23.893Z,100.00
2018-12-24T05:00:52.406Z,100.00
2018-12-24T05:03:20.931Z,100.00
2018-12-24T05:05:49.466Z,100.00
2018-12-24T05:08:18.026Z,100.00
2018-12-24T05:10:46.602Z,100.00
2018-12-24T05:13:15.168Z,100.00
2018-12-24T05:15:43.678Z,100.00
2018-12-24T05:18:22.324Z,100.00
2018-12-24T05:20:50.823Z,100.00
2018-12-24T05:23:19.332Z,100.00
2018-12-24T05:25:58.209Z,100.00
2018-12-24T05:28:28.345Z,100.00
2018-12-24T05:30:56.978Z,100.00
2018-12-24T05:33:25.467Z,100.00
2018-12-24T05:35:53.992Z,100.00
2018-12-24T05:38:22.516Z,100.00
2018-12-24T05:40:51.037Z,100.00
2018-12-24T05:43:19.587Z,100.00
2018-12-24T05:45:48.143Z,100.00
2018-12-24T05:48:16.680Z,100.00
2018-12-24T05:50:45.206Z,100.00
2018-12-24T05:53:13.741Z,100.00
2018-12-24T05:55:53.164Z,100.00
2018-12-24T05:58:32.609Z,100.00
2018-12-24T06:01:12.927Z,100.00
2018-12-24T06:03:51.216Z,100.00
2018-12-24T06:06:29.406Z,100.00
2018-12-24T06:08:58.448Z,100.00
2018-12-24T06:11:26.970Z,100.00
2018-12-24T06:13:58.105Z,100.00
2018-12-24T06:16:23.993Z,100.00
2018-12-24T06:18:52.531Z,100.00
2018-12-24T06:21:21.052Z,100.00
2018-12-24T06:23:49.583Z,100.00
2018-12-24T06:26:18.098Z,100.00
2018-12-24T06:28:46.633Z,100.00
2018-12-24T06:31:15.180Z,100.00
2018-12-24T06:33:43.717Z,100.00
2018-12-24T06:36:12.230Z,100.00
2018-12-24T06:38:40.764Z,100.00
2018-12-24T06:41:09.288Z,100.00
2018-12-24T06:43:37.803Z,100.00
2018-12-24T06:46:15.202Z,100.00
2018-12-24T06:48:43.713Z,100.00
2018-12-24T06:51:12.236Z,100.00
2018-12-24T06:53:40.770Z,100.00
2018-12-24T06:56:09.311Z,100.00
2018-12-24T06:58:37.809Z,100.00
2018-12-24T07:01:06.330Z,100.00
2018-12-24T07:03:34.868Z,100.00
2018-12-24T07:06:03.392Z,100.00
2018-12-24T07:08:31.910Z,100.00
2018-12-24T07:11:00.451Z,100.00
2018-12-24T07:13:28.974Z,100.00
2018-12-24T07:15:57.486Z,100.00
2018-12-24T07:18:26.081Z,100.00
2018-12-24T07:20:55.321Z,100.00
2018-12-24T07:23:23.845Z,100.00
2018-12-24T07:25:52.458Z,100.00
2018-12-24T07:28:21.063Z,100.00
2018-12-24T07:30:57.205Z,100.00
2018-12-24T07:33:25.717Z,100.00
2018-12-24T07:35:54.265Z,100.00
2018-12-24T07:38:22.832Z,100.00
2018-12-24T07:40:51.459Z,100.00
2018-12-24T07:43:19.973Z,100.00
2018-12-24T07:45:48.490Z,100.00
2018-12-24T07:48:17.004Z,100.00
2018-12-24T07:50:45.554Z,100.00
2018-12-24T07:53:14.094Z,100.00
2018-12-24T07:55:42.609Z,100.00
2018-12-24T07:58:13.198Z,100.00
2018-12-24T08:00:41.692Z,100.00
2018-12-24T08:03:10.225Z,100.00
2018-12-24T08:05:38.772Z,100.00
2018-12-24T08:08:07.268Z,100.00
2018-12-24T08:10:35.794Z,100.00
2018-12-24T08:13:09.968Z,100.00
2018-12-24T08:15:38.654Z,100.00
2018-12-24T08:18:07.166Z,100.00
2018-12-24T08:20:35.695Z,100.00
2018-12-24T08:23:04.227Z,100.00
2018-12-24T08:25:32.747Z,100.00
2018-12-24T08:28:01.266Z,100.00
2018-12-24T08:30:29.811Z,100.00
2018-12-24T08:32:58.321Z,100.00
2018-12-24T08:35:26.866Z,100.00
2018-12-24T08:37:55.771Z,100.00
2018-12-24T08:40:24.313Z,100.00
2018-12-24T08:42:52.841Z,100.00
2018-12-24T08:45:21.483Z,100.00
2018-12-24T08:47:49.992Z,100.00
2018-12-24T08:50:18.538Z,100.00
2018-12-24T08:52:47.057Z,100.00
2018-12-24T08:55:15.583Z,100.00
2018-12-24T08:57:45.073Z,100.00
2018-12-24T09:00:13.604Z,100.00
2018-12-24T09:02:42.128Z,100.00
2018-12-24T09:05:10.656Z,100.00
2018-12-24T09:07:39.213Z,100.00
2018-12-24T09:10:07.730Z,100.00
2018-12-24T09:12:36.254Z,100.00
2018-12-24T09:15:04.815Z,100.00
2018-12-24T09:17:35.118Z,100.00
2018-12-24T09:20:06.911Z,100.00
2018-12-24T09:22:35.410Z,100.00
2018-12-24T09:25:03.932Z,100.00
2018-12-24T09:27:32.437Z,100.00
2018-12-24T09:30:00.957Z,100.00
2018-12-24T09:32:30.449Z,100.00
2018-12-24T09:34:58.961Z,100.00
2018-12-24T09:37:27.494Z,100.00
2018-12-24T09:39:56.149Z,100.00
2018-12-24T09:42:24.718Z,100.00
2018-12-24T09:44:58.849Z,100.00
2018-12-24T09:47:22.818Z,100.00
2018-12-24T09:49:51.334Z,100.00
2018-12-24T09:52:19.904Z,100.00
2018-12-24T09:54:48.447Z,100.00
2018-12-24T09:57:16.983Z,100.00
2018-12-24T09:59:45.518Z,100.00
2018-12-24T10:02:14.026Z,100.00
2018-12-24T10:04:42.685Z,100.00
2018-12-24T10:07:14.641Z,100.00
2018-12-24T10:09:43.158Z,100.00
2018-12-24T10:12:11.742Z,100.00
2018-12-24T10:14:40.451Z,100.00
2018-12-24T10:17:08.953Z,99.77
2018-12-24T10:19:37.466Z,99.65
2018-12-24T10:22:06.001Z,100.00
2018-12-24T10:24:35.447Z,99.12
2018-12-24T10:27:03.925Z,98.90
2018-12-24T10:29:32.513Z,98.79
2018-12-24T10:32:01.014Z,99.00
2018-12-24T10:34:29.547Z,97.84
2018-12-24T10:36:58.066Z,98.49
2018-12-24T10:39:26.717Z,98.66
2018-12-24T10:41:55.333Z,98.94
2018-12-24T10:44:24.067Z,98.55
2018-12-24T10:46:52.577Z,99.12
2018-12-24T10:49:21.192Z,98.06
2018-12-24T10:51:49.780Z,98.01
2018-12-24T10:54:18.382Z,97.70
2018-12-24T10:56:46.994Z,98.11
2018-12-24T10:59:15.607Z,98.87
2018-12-24T11:01:44.792Z,99.53
2018-12-24T11:04:12.857Z,100.00
2018-12-24T11:06:41.463Z,100.00
2018-12-24T11:09:09.995Z,100.00
2018-12-24T11:11:38.601Z,100.00
2018-12-24T11:14:08.150Z,100.00
2018-12-24T11:16:37.639Z,100.00
2018-12-24T11:19:06.441Z,100.00
2018-12-24T11:21:35.839Z,100.00
2018-12-24T11:24:04.457Z,100.00
2018-12-24T11:26:33.392Z,100.00
2018-12-24T11:29:02.038Z,100.00
2018-12-24T11:31:30.668Z,100.00
2018-12-24T11:33:59.248Z,99.65
2018-12-24T11:36:28.172Z,99.85
2018-12-24T11:38:56.723Z,100.00
2018-12-24T11:41:26.374Z,100.00
2018-12-24T11:43:55.026Z,100.00
2018-12-24T11:46:23.616Z,98.53
2018-12-24T11:48:52.893Z,98.79
2018-12-24T11:51:21.449Z,97.67
2018-12-24T11:53:50.147Z,98.63
2018-12-24T11:56:18.646Z,98.01
2018-12-24T11:58:47.157Z,97.77
2018-12-24T12:01:15.897Z,98.10
2018-12-24T12:03:44.679Z,97.48
2018-12-24T12:06:19.777Z,96.55
2018-12-24T12:08:42.018Z,97.25
2018-12-24T12:11:10.829Z,96.98
2018-12-24T12:13:39.446Z,97.72
2018-12-24T12:16:08.070Z,96.99
2018-12-24T12:18:39.108Z,97.38
2018-12-24T12:21:16.004Z,94.92
2018-12-24T12:23:47.961Z,96.36
2018-12-24T12:26:19.598Z,95.31
2018-12-24T12:28:50.699Z,91.36
2018-12-24T12:31:21.253Z,86.47
2018-12-24T12:33:49.753Z,86.93
2018-12-24T12:36:18.274Z,84.72
2018-12-24T12:38:46.818Z,84.55
2018-12-24T12:41:15.768Z,83.39
2018-12-24T12:43:44.292Z,85.42
2018-12-24T12:46:12.810Z,86.39
2018-12-24T12:48:41.350Z,89.64
2018-12-24T12:51:09.882Z,91.26
2018-12-24T12:53:38.897Z,92.24
2018-12-24T12:56:09.446Z,90.07
2018-12-24T12:58:39.788Z,88.24
2018-12-24T13:01:09.408Z,84.51
2018-12-24T13:03:37.948Z,87.16
2018-12-24T13:06:06.464Z,87.70
2018-12-24T13:08:35.035Z,89.94
2018-12-24T13:11:07.971Z,89.44
2018-12-24T13:13:42.929Z,90.64
2018-12-24T13:16:16.049Z,86.76
2018-12-24T13:18:49.932Z,87.35
2018-12-24T13:21:18.572Z,88.14
2018-12-24T13:23:47.106Z,87.44
2018-12-24T13:26:15.649Z,83.08
2018-12-24T13:28:44.189Z,74.98
2018-12-24T13:31:12.727Z,72.24
2018-12-24T13:33:41.315Z,75.65
2018-12-24T13:36:09.834Z,79.26
2018-12-24T13:38:38.395Z,82.94
2018-12-24T13:41:06.899Z,80.15
2018-12-24T13:43:35.480Z,78.95
2018-12-24T13:46:08.021Z,84.33
2018-12-24T13:48:32.582Z,87.60
2018-12-24T13:51:01.132Z,88.62
2018-12-24T13:53:29.797Z,89.68
2018-12-24T13:55:59.082Z,90.26
2018-12-24T13:58:27.603Z,90.43
2018-12-24T14:00:56.163Z,91.93
2018-12-24T14:03:25.564Z,91.06
2018-12-24T14:05:54.159Z,91.63
2018-12-24T14:08:22.649Z,91.34
2018-12-24T14:10:51.202Z,92.36
2018-12-24T14:13:19.720Z,92.95
2018-12-24T14:15:48.229Z,92.99
2018-12-24T14:18:16.758Z,93.48
2018-12-24T14:20:45.271Z,94.05
2018-12-24T14:23:14.848Z,93.85
2018-12-24T14:25:43.383Z,95.56
2018-12-24T14:28:11.898Z,95.98
2018-12-24T14:30:40.405Z,95.86
2018-12-24T14:33:08.937Z,96.50
2018-12-24T14:35:37.466Z,96.67
2018-12-24T14:38:06.017Z,97.10
2018-12-24T14:40:34.613Z,97.13
2018-12-24T14:43:03.341Z,97.35
2018-12-24T14:45:31.913Z,97.29
2018-12-24T14:48:00.425Z,97.18
2018-12-24T14:50:28.970Z,98.40
2018-12-24T14:52:57.481Z,97.50
2018-12-24T14:55:28.374Z,97.30
2018-12-24T14:57:56.949Z,97.37
2018-12-24T15:00:25.471Z,97.29
2018-12-24T15:02:53.991Z,96.75
2018-12-24T15:05:22.601Z,97.09
2018-12-24T15:07:51.423Z,98.83
2018-12-24T15:10:20.098Z,100.00
2018-12-24T15:12:48.710Z,100.00
2018-12-24T15:15:17.274Z,100.00
2018-12-24T15:17:45.815Z,100.00
2018-12-24T15:20:14.423Z,100.00
2018-12-24T15:22:42.985Z,100.00
2018-12-24T15:25:11.511Z,100.00
2018-12-24T15:27:40.032Z,100.00
2018-12-24T15:30:08.554Z,100.00
2018-12-24T15:32:37.762Z,100.00
2018-12-24T15:35:06.309Z,100.00
2018-12-24T15:37:34.849Z,100.00
2018-12-24T15:40:03.388Z,100.00
2018-12-24T15:42:41.772Z,100.00
2018-12-24T15:45:11.042Z,100.00
2018-12-24T15:47:39.567Z,100.00
2018-12-24T15:50:08.439Z,100.00
2018-12-24T15:52:36.945Z,100.00
2018-12-24T15:55:05.479Z,100.00
2018-12-24T15:57:33.999Z,100.00
2018-12-24T16:00:02.567Z,100.00
2018-12-24T16:02:31.096Z,100.00
2018-12-24T16:04:59.608Z,100.00
2018-12-24T16:07:28.141Z,100.00
2018-12-24T16:09:57.627Z,100.00
2018-12-24T16:12:26.133Z,100.00
2018-12-24T16:14:54.697Z,100.00
2018-12-24T16:17:23.222Z,100.00
2018-12-24T16:19:52.323Z,100.00
2018-12-24T16:22:20.871Z,100.00
2018-12-24T16:24:49.388Z,100.00
2018-12-24T16:27:17.917Z,100.00
2018-12-24T16:29:46.443Z,100.00
2018-12-24T16:32:14.970Z,100.00
2018-12-24T16:34:43.481Z,100.00
2018-12-24T16:37:12.920Z,100.00
2018-12-24T16:39:41.467Z,100.00
2018-12-24T16:42:09.991Z,100.00
2018-12-24T16:44:38.500Z,100.00
2018-12-24T16:47:07.039Z,100.00
2018-12-24T16:49:35.563Z,100.00
2018-12-24T16:52:04.103Z,100.00
2018-12-24T16:54:32.687Z,100.00
2018-12-24T16:57:01.186Z,100.00
2018-12-24T16:59:29.773Z,100.00
2018-12-24T17:01:58.241Z,100.00
2018-12-24T17:04:26.750Z,100.00
2018-12-24T17:06:55.325Z,100.00
2018-12-24T17:09:23.896Z,100.00
2018-12-24T17:11:52.427Z,100.00
2018-12-24T17:14:21.927Z,100.00
2018-12-24T17:16:50.446Z,100.00
2018-12-24T17:19:18.964Z,100.00
2018-12-24T17:21:47.580Z,100.00
2018-12-24T17:24:16.078Z,100.00
2018-12-24T17:26:44.606Z,100.00
2018-12-24T17:29:13.129Z,100.00
2018-12-24T17:31:41.711Z,100.00
2018-12-24T17:34:11.193Z,100.00
2018-12-24T17:36:42.796Z,100.00
2018-12-24T17:39:11.309Z,100.00
2018-12-24T17:41:39.907Z,100.00
2018-12-24T17:44:08.408Z,100.00
2018-12-24T17:46:36.924Z,100.00
2018-12-24T17:49:05.521Z,100.00
2018-12-24T17:51:34.014Z,100.00
2018-12-24T17:54:02.529Z,100.00
2018-12-24T17:56:31.085Z,100.00
2018-12-24T17:59:09.427Z,100.00
2018-12-24T18:01:37.926Z,100.00
2018-12-24T18:04:06.510Z,100.00
2018-12-24T18:06:35.017Z,100.00
2018-12-24T18:09:03.595Z,100.00
2018-12-24T18:11:32.108Z,100.00
2018-12-24T18:14:00.736Z,100.00
2018-12-24T18:16:29.314Z,100.00
2018-12-24T18:18:58.577Z,100.00
2018-12-24T18:21:27.117Z,100.00
2018-12-24T18:23:56.698Z,100.00
2018-12-24T18:26:25.520Z,100.00
2018-12-24T18:28:54.066Z,100.00
2018-12-24T18:31:22.581Z,100.00
2018-12-24T18:33:51.219Z,100.00
2018-12-24T18:36:20.699Z,100.00
2018-12-24T18:38:49.213Z,100.00
2018-12-24T18:41:17.762Z,100.00
2018-12-24T18:43:50.260Z,100.00
2018-12-24T18:46:18.840Z,100.00
2018-12-24T18:48:47.464Z,100.00
2018-12-24T18:51:16.000Z,100.00
2018-12-24T18:53:44.542Z,100.00
2018-12-24T18:56:13.070Z,100.00
2018-12-24T18:58:41.594Z,100.00
2018-12-24T19:01:10.126Z,100.00
2018-12-24T19:03:38.690Z,100.00
2018-12-24T19:06:07.268Z,100.00
2018-12-24T19:08:35.794Z,100.00
2018-12-24T19:11:04.338Z,100.00
2018-12-24T19:13:32.866Z,100.00
2018-12-24T19:16:01.385Z,100.00
2018-12-24T19:18:31.868Z,100.00
2018-12-24T19:21:00.462Z,100.00
2018-12-24T19:23:28.978Z,100.00
2018-12-24T19:25:57.543Z,100.00
2018-12-24T19:28:26.057Z,100.00
2018-12-24T19:30:56.737Z,100.00
2018-12-24T19:33:25.254Z,100.00
2018-12-24T19:35:53.825Z,100.00
2018-12-24T19:38:27.393Z,100.00
2018-12-24T19:40:55.904Z,100.00
2018-12-24T19:43:24.458Z,100.00
2018-12-24T19:45:53.017Z,100.00
2018-12-24T19:48:21.525Z,100.00
2018-12-24T19:50:50.050Z,100.00
2018-12-24T19:53:18.594Z,100.00
2018-12-24T19:55:47.120Z,100.00
2018-12-24T19:58:15.681Z,100.00
2018-12-24T20:00:44.229Z,100.00
2018-12-24T20:03:13.788Z,100.00
2018-12-24T20:05:42.301Z,100.00
2018-12-24T20:08:10.837Z,100.00
2018-12-24T20:10:40.281Z,100.00
2018-12-24T20:13:08.796Z,100.00
2018-12-24T20:15:37.341Z,100.00
2018-12-24T20:18:05.856Z,100.00
2018-12-24T20:20:34.391Z,100.00
2018-12-24T20:23:06.160Z,100.00
2018-12-24T20:25:34.736Z,100.00
2018-12-24T20:28:03.261Z,100.00
2018-12-24T20:30:31.796Z,100.00
2018-12-24T20:33:00.292Z,100.00
2018-12-24T20:35:28.816Z,100.00
2018-12-24T20:37:57.345Z,100.00
2018-12-24T20:40:25.909Z,100.00
2018-12-24T20:42:54.414Z,100.00
2018-12-24T20:45:22.929Z,100.00
2018-12-24T20:47:51.462Z,100.00
2018-12-24T20:50:19.984Z,100.00
2018-12-24T20:52:48.567Z,100.00
2018-12-24T20:55:17.160Z,100.00
2018-12-24T20:57:45.673Z,100.00
2018-12-24T21:00:14.195Z,100.00
2018-12-24T21:02:42.710Z,100.00
2018-12-24T21:05:11.230Z,100.00
2018-12-24T21:07:39.750Z,100.00
2018-12-24T21:10:09.214Z,100.00
2018-12-24T21:12:37.772Z,100.00
2018-12-24T21:15:06.281Z,100.00
2018-12-24T21:17:34.796Z,100.00
2018-12-24T21:20:05.238Z,100.00
2018-12-24T21:22:33.790Z,100.00
2018-12-24T21:25:02.351Z,100.00
2018-12-24T21:27:31.818Z,100.00
2018-12-24T21:30:00.356Z,100.00
2018-12-24T21:32:28.874Z,100.00
2018-12-24T21:34:57.395Z,100.00
2018-12-24T21:37:25.925Z,100.00
2018-12-24T21:39:54.453Z,100.00
2018-12-24T21:42:22.973Z,100.00
2018-12-24T21:44:51.490Z,100.00
2018-12-24T21:47:20.033Z,100.00
2018-12-24T21:49:56.929Z,100.00
2018-12-24T21:52:26.157Z,100.00
2018-12-24T21:54:56.589Z,100.00
2018-12-24T21:57:25.098Z,100.00
2018-12-24T21:59:53.617Z,100.00
2018-12-24T22:02:22.150Z,100.00
2018-12-24T22:04:50.714Z,100.00
2018-12-24T22:07:19.232Z,100.00
2018-12-24T22:09:47.831Z,100.00
2018-12-24T22:12:16.343Z,100.00
2018-12-24T22:14:44.867Z,100.00
2018-12-24T22:17:13.386Z,100.00
2018-12-24T22:19:41.910Z,100.00
2018-12-24T22:22:10.642Z,100.00
2018-12-24T22:24:39.376Z,100.00
2018-12-24T22:27:07.928Z,100.00
2018-12-24T22:29:36.493Z,100.00
2018-12-24T22:32:10.156Z,100.00
2018-12-24T22:34:38.665Z,100.00
2018-12-24T22:37:07.226Z,100.00
2018-12-24T22:39:35.778Z,100.00
2018-12-24T22:42:04.390Z,100.00
2018-12-24T22:44:32.941Z,100.00
2018-12-24T22:47:02.371Z,100.00
2018-12-24T22:49:30.940Z,100.00
2018-12-24T22:51:59.429Z,100.00
2018-12-24T22:54:32.264Z,100.00
2018-12-24T22:57:00.759Z,100.00
2018-12-24T22:59:29.275Z,100.00
2018-12-24T23:01:57.817Z,100.00
2018-12-24T23:04:26.349Z,100.00
2018-12-24T23:06:54.875Z,100.00
2018-12-24T23:09:23.419Z,100.00
2018-12-24T23:11:52.025Z,100.00
2018-12-24T23:14:20.520Z,100.00
2018-12-24T23:16:56.159Z,100.00
2018-12-24T23:19:25.947Z,100.00
2018-12-24T23:21:54.453Z,100.00
2018-12-24T23:24:23.098Z,100.00
2018-12-24T23:26:51.635Z,100.00
2018-12-24T23:29:20.157Z,100.00
2018-12-24T23:31:48.695Z,100.00
2018-12-24T23:34:17.295Z,100.00
2018-12-24T23:36:45.787Z,100.00
2018-12-24T23:39:14.343Z,100.00
2018-12-24T23:41:42.865Z,100.00
2018-12-24T23:44:11.465Z,100.00
2018-12-24T23:46:39.979Z,100.00
2018-12-24T23:49:08.530Z,100.00
2018-12-24T23:51:37.052Z,100.00
2018-12-24T23:54:05.574Z,100.00
2018-12-24T23:56:35.397Z,100.00
2018-12-24T23:59:04.104Z,100.00
